X  Close Metar Aviation Weather Data     EDDM Munich Airport
Temperature
75°F Temperature
50°F Dewpoint
41% Humidity



Wind
2 MPH
3 KM/H
1 M/S
2 KTS



Calm
N
Current Conditions

Clear Clear
Pressure 1013.88 (hPa) - 29.94 (inHg)
Visibility 6 (mile) - 9.7 (km)
Airport
Airport-code EDDM

Location: Munich Airport
Distance: 30 (mi)

Metar:
EDDM 251550Z AUTO VRB02KT CAVOK 24/10 Q1014 NOSIG

Time: 25-07-2024 17:50 CEST